createdAt,value
2019-05-30T00:00:38.756Z,11.60
2019-05-30T00:03:07.629Z,10.43
2019-05-30T00:05:36.320Z,11.57
2019-05-30T00:08:05.032Z,11.47
2019-05-30T00:10:33.781Z,9.00
2019-05-30T00:13:02.891Z,10.90
2019-05-30T00:15:31.687Z,9.57
2019-05-30T00:18:00.903Z,11.23
2019-05-30T00:20:29.658Z,11.63
2019-05-30T00:23:01.015Z,11.07
2019-05-30T00:25:29.590Z,10.10
2019-05-30T00:27:59.183Z,9.20
2019-05-30T00:30:27.605Z,10.77
2019-05-30T00:32:57.228Z,8.23
2019-05-30T00:35:25.981Z,10.00
2019-05-30T00:37:55.601Z,11.00
2019-05-30T00:40:24.471Z,9.10
2019-05-30T00:42:52.971Z,10.50
2019-05-30T00:45:21.680Z,9.80
2019-05-30T00:47:50.314Z,10.63
2019-05-30T00:50:19.001Z,9.00
2019-05-30T00:52:47.719Z,9.03
2019-05-30T00:55:16.069Z,7.57
2019-05-30T00:57:44.455Z,8.83
2019-05-30T01:00:13.666Z,9.57
2019-05-30T01:02:42.459Z,8.80
2019-05-30T01:05:10.917Z,10.03
2019-05-30T01:07:39.625Z,7.27
2019-05-30T01:10:08.892Z,7.80
2019-05-30T01:12:37.726Z,10.77
2019-05-30T01:15:07.452Z,10.80
2019-05-30T01:17:37.111Z,9.37
2019-05-30T01:20:07.491Z,8.00
2019-05-30T01:22:36.421Z,9.53
2019-05-30T01:25:07.620Z,8.13
2019-05-30T01:27:36.547Z,9.80
2019-05-30T01:30:06.260Z,10.13
2019-05-30T01:32:35.066Z,8.93
2019-05-30T01:35:03.992Z,8.60
2019-05-30T01:37:32.333Z,9.07
2019-05-30T01:40:01.891Z,9.53
2019-05-30T01:42:30.680Z,9.47
2019-05-30T01:45:00.205Z,8.97
2019-05-30T01:47:29.010Z,10.43
2019-05-30T01:49:58.263Z,11.93
2019-05-30T01:52:26.998Z,8.27
2019-05-30T01:54:55.381Z,10.13
2019-05-30T01:57:24.185Z,12.20
2019-05-30T01:59:52.442Z,9.67
2019-05-30T02:02:20.923Z,12.20
2019-05-30T02:04:49.631Z,10.43
2019-05-30T02:07:17.986Z,10.80
2019-05-30T02:09:46.570Z,10.37
2019-05-30T02:12:15.267Z,9.70
2019-05-30T02:14:43.939Z,8.27
2019-05-30T02:17:13.524Z,12.77
2019-05-30T02:19:42.046Z,9.27
2019-05-30T02:22:10.615Z,12.53
2019-05-30T02:24:39.289Z,11.37
2019-05-30T02:27:08.375Z,12.63
2019-05-30T02:29:36.875Z,9.20
2019-05-30T02:32:06.936Z,9.53
2019-05-30T02:34:35.607Z,10.93
2019-05-30T02:37:06.100Z,8.77
2019-05-30T02:39:34.692Z,11.87
2019-05-30T02:42:04.892Z,9.93
2019-05-30T02:44:33.592Z,8.27
2019-05-30T02:47:03.584Z,10.00
2019-05-30T02:49:32.726Z,12.80
2019-05-30T02:52:02.555Z,11.20
2019-05-30T02:54:31.410Z,10.73
2019-05-30T02:57:01.465Z,9.50
2019-05-30T02:59:30.314Z,9.23
2019-05-30T03:02:02.900Z,8.10
2019-05-30T03:04:29.551Z,8.60
2019-05-30T03:06:58.209Z,12.57
2019-05-30T03:09:26.895Z,9.90
2019-05-30T03:11:55.608Z,7.73
2019-05-30T03:14:24.266Z,6.37
2019-05-30T03:16:52.955Z,8.30
2019-05-30T03:19:21.657Z,9.60
2019-05-30T03:21:50.324Z,8.40
2019-05-30T03:24:18.809Z,7.80
2019-05-30T03:26:47.214Z,6.97
2019-05-30T03:29:15.709Z,7.07
2019-05-30T03:31:45.697Z,7.40
2019-05-30T03:34:26.362Z,8.67
2019-05-30T03:36:44.788Z,7.37
2019-05-30T03:39:15.255Z,7.50
2019-05-30T03:41:43.515Z,8.73
2019-05-30T03:44:13.901Z,8.13
2019-05-30T03:46:46.892Z,8.13
2019-05-30T03:49:19.454Z,7.93
2019-05-30T03:51:49.873Z,9.10
2019-05-30T03:54:18.911Z,9.20
2019-05-30T03:56:53.462Z,8.03
2019-05-30T03:59:28.751Z,4.87
2019-05-30T04:02:27.550Z,7.37
2019-05-30T04:05:06.725Z,10.03
2019-05-30T04:07:40.444Z,7.00
2019-05-30T04:10:11.441Z,7.03
2019-05-30T04:13:03.650Z,5.80
2019-05-30T04:15:33.247Z,8.67
2019-05-30T04:18:01.974Z,8.63
2019-05-30T04:20:30.479Z,8.30
2019-05-30T04:22:59.138Z,7.33
2019-05-30T04:25:27.825Z,10.57
2019-05-30T04:28:02.265Z,8.83
2019-05-30T04:30:31.036Z,6.70
2019-05-30T04:33:16.283Z,8.73
2019-05-30T04:35:29.910Z,7.20
2019-05-30T04:37:58.309Z,7.43
2019-05-30T04:40:26.904Z,8.43
2019-05-30T04:42:55.598Z,7.30
2019-05-30T04:45:27.666Z,7.97
2019-05-30T04:47:54.695Z,8.23
2019-05-30T04:50:23.300Z,7.60
2019-05-30T04:52:52.066Z,8.80
2019-05-30T04:55:22.724Z,7.37
2019-05-30T04:57:50.586Z,8.07
2019-05-30T05:00:21.664Z,6.27
2019-05-30T05:02:50.405Z,7.57
2019-05-30T05:05:24.315Z,6.00
2019-05-30T05:07:49.411Z,9.10
2019-05-30T05:10:20.224Z,6.77
2019-05-30T05:12:49.228Z,6.30
2019-05-30T05:15:18.695Z,6.90
2019-05-30T05:17:47.441Z,5.07
2019-05-30T05:20:17.245Z,7.40
2019-05-30T05:22:45.588Z,6.23
2019-05-30T05:25:15.420Z,10.03
2019-05-30T05:27:43.589Z,8.77
2019-05-30T05:30:13.876Z,8.50
2019-05-30T05:32:42.633Z,7.70
2019-05-30T05:35:11.298Z,8.63
2019-05-30T05:37:39.751Z,8.87
2019-05-30T05:40:08.770Z,6.30
2019-05-30T05:42:37.557Z,8.63
2019-05-30T05:45:06.239Z,7.57
2019-05-30T05:47:34.950Z,7.00
2019-05-30T05:50:04.640Z,8.20
2019-05-30T05:52:33.121Z,7.17
2019-05-30T05:55:01.510Z,10.40
2019-05-30T05:57:30.273Z,7.07
2019-05-30T05:59:58.958Z,8.20
2019-05-30T06:02:30.689Z,7.47
2019-05-30T06:05:03.780Z,5.57
2019-05-30T06:07:35.371Z,8.43
2019-05-30T06:10:12.044Z,7.00
2019-05-30T06:12:50.282Z,7.70
2019-05-30T06:15:22.879Z,7.17
2019-05-30T06:17:55.536Z,7.23
2019-05-30T06:20:31.333Z,7.87
2019-05-30T06:23:03.585Z,6.83
2019-05-30T06:25:37.765Z,5.57
2019-05-30T06:28:10.347Z,6.07
2019-05-30T06:30:44.855Z,7.07
2019-05-30T06:33:18.570Z,5.53
2019-05-30T06:35:56.309Z,7.50
2019-05-30T06:38:32.247Z,5.70
2019-05-30T06:41:08.257Z,4.73
2019-05-30T06:43:41.091Z,6.80
2019-05-30T06:46:15.924Z,6.90
2019-05-30T06:48:46.462Z,6.47
2019-05-30T06:51:29.111Z,4.77
2019-05-30T06:54:03.499Z,5.80
2019-05-30T06:56:44.455Z,5.37
2019-05-30T06:59:12.607Z,6.50
2019-05-30T07:01:48.025Z,5.77
2019-05-30T07:04:19.202Z,4.07
2019-05-30T07:06:55.417Z,6.60
2019-05-30T07:09:33.605Z,4.27
2019-05-30T07:12:07.177Z,6.23
2019-05-30T07:14:57.381Z,4.97
2019-05-30T07:17:35.443Z,5.00
2019-05-30T07:20:10.115Z,5.33
2019-05-30T07:22:52.084Z,4.33
2019-05-30T07:25:29.801Z,5.43
2019-05-30T07:28:07.310Z,4.80
2019-05-30T07:30:40.636Z,3.53
2019-05-30T07:33:17.144Z,4.10
2019-05-30T07:35:48.355Z,3.60
2019-05-30T07:38:24.294Z,4.23
2019-05-30T07:41:05.033Z,2.63
2019-05-30T07:43:37.348Z,8.27
2019-05-30T07:46:09.159Z,5.50
2019-05-30T07:48:43.783Z,3.17
2019-05-30T07:51:16.125Z,4.37
2019-05-30T07:53:55.133Z,2.40
2019-05-30T07:56:27.458Z,2.80
2019-05-30T07:59:00.149Z,2.70
2019-05-30T08:01:32.646Z,2.03
2019-05-30T08:04:04.955Z,2.50
2019-05-30T08:06:38.251Z,2.03
2019-05-30T08:09:15.491Z,5.47
2019-05-30T08:11:48.088Z,3.00
2019-05-30T08:14:21.865Z,2.37
2019-05-30T08:16:56.058Z,2.43
2019-05-30T08:19:29.690Z,1.53
2019-05-30T08:22:06.321Z,1.67
2019-05-30T08:24:46.929Z,3.10
2019-05-30T08:27:25.173Z,3.00
2019-05-30T08:30:02.206Z,3.37
2019-05-30T08:32:41.376Z,3.00
2019-05-30T08:35:16.946Z,2.23
2019-05-30T08:37:49.643Z,1.80
2019-05-30T08:40:22.695Z,3.00
2019-05-30T08:43:00.899Z,2.70
2019-05-30T08:45:35.668Z,4.20
2019-05-30T08:48:14.446Z,3.60
2019-05-30T08:50:47.670Z,2.70
2019-05-30T08:53:20.276Z,3.07
2019-05-30T08:55:53.192Z,1.40
2019-05-30T08:58:28.863Z,2.57
2019-05-30T09:01:06.773Z,3.73
2019-05-30T09:03:47.373Z,3.50
2019-05-30T09:06:22.445Z,7.47
2019-05-30T09:08:57.741Z,3.87
2019-05-30T09:11:29.131Z,2.17
2019-05-30T09:14:07.134Z,1.00
2019-05-30T09:16:44.645Z,6.10
2019-05-30T09:19:18.166Z,7.37
2019-05-30T09:22:08.179Z,1.97
2019-05-30T09:24:51.218Z,3.07
2019-05-30T09:27:29.626Z,2.17
2019-05-30T09:30:03.276Z,2.10
2019-05-30T09:32:39.412Z,2.13
2019-05-30T09:35:15.315Z,1.40
2019-05-30T09:37:45.802Z,1.43
2019-05-30T09:40:19.677Z,0.73
2019-05-30T09:42:58.212Z,1.80
2019-05-30T09:45:37.733Z,0.63
2019-05-30T09:48:12.162Z,1.60
2019-05-30T09:50:46.862Z,0.70
2019-05-30T09:53:22.107Z,1.40
2019-05-30T09:55:55.265Z,1.90
2019-05-30T09:58:28.461Z,0.47
2019-05-30T10:01:01.822Z,0.83
2019-05-30T10:03:42.022Z,1.00
2019-05-30T10:06:28.892Z,1.73
2019-05-30T10:08:55.999Z,1.47
2019-05-30T10:11:31.451Z,0.50
2019-05-30T10:14:09.717Z,0.77
2019-05-30T10:16:49.935Z,1.33
2019-05-30T10:19:19.191Z,1.47
2019-05-30T10:21:57.553Z,1.50
2019-05-30T10:24:33.550Z,2.93
2019-05-30T10:27:09.353Z,0.80
2019-05-30T10:29:45.865Z,1.00
2019-05-30T10:32:23.895Z,1.60
2019-05-30T10:34:59.564Z,2.43
2019-05-30T10:37:32.051Z,1.43
2019-05-30T10:40:06.927Z,0.60
2019-05-30T10:42:43.872Z,0.77
2019-05-30T10:45:21.952Z,0.80
2019-05-30T10:47:55.470Z,0.90
2019-05-30T10:50:28.863Z,2.13
2019-05-30T10:53:01.523Z,0.70
2019-05-30T10:55:36.163Z,0.40
2019-05-30T10:58:10.200Z,1.53
2019-05-30T11:00:55.905Z,0.50
2019-05-30T11:03:29.935Z,1.07
2019-05-30T11:06:35.065Z,0.50
2019-05-30T11:09:14.290Z,1.07
2019-05-30T11:11:58.171Z,1.13
2019-05-30T11:14:31.148Z,2.03
2019-05-30T11:17:04.114Z,1.70
2019-05-30T11:19:37.789Z,1.70
2019-05-30T11:22:10.940Z,1.23
2019-05-30T11:24:46.679Z,1.27
2019-05-30T11:27:28.019Z,1.40
2019-05-30T11:30:00.679Z,1.80
2019-05-30T11:32:38.128Z,1.40
2019-05-30T11:35:14.265Z,1.67
2019-05-30T11:37:59.281Z,1.43
2019-05-30T11:40:39.094Z,1.17
2019-05-30T11:43:24.403Z,2.40
2019-05-30T11:46:00.096Z,1.90
2019-05-30T11:48:33.931Z,1.17
2019-05-30T11:51:03.776Z,1.23
2019-05-30T11:53:36.732Z,1.20
2019-05-30T11:56:11.914Z,1.73
2019-05-30T11:58:49.856Z,2.67
2019-05-30T12:01:22.937Z,2.80
2019-05-30T12:03:58.762Z,2.50
2019-05-30T12:06:38.065Z,1.60
2019-05-30T12:09:16.493Z,2.47
2019-05-30T12:11:48.767Z,1.40
2019-05-30T12:14:21.490Z,1.60
2019-05-30T12:16:55.243Z,1.20
2019-05-30T12:19:28.618Z,1.30
2019-05-30T12:22:05.640Z,1.60
2019-05-30T12:24:40.365Z,2.57
2019-05-30T12:27:21.453Z,1.87
2019-05-30T12:30:04.506Z,1.50
2019-05-30T12:32:41.120Z,1.87
2019-05-30T12:35:15.335Z,2.47
2019-05-30T12:38:01.423Z,2.10
2019-05-30T12:40:33.208Z,2.70
2019-05-30T12:43:12.924Z,1.30
2019-05-30T12:45:50.636Z,2.67
2019-05-30T12:48:25.705Z,1.97
2019-05-30T12:51:00.054Z,2.47
2019-05-30T12:53:40.885Z,1.77
2019-05-30T12:56:19.359Z,2.50
2019-05-30T12:58:51.586Z,3.63
2019-05-30T13:01:20.625Z,2.60
2019-05-30T13:03:57.166Z,2.57
2019-05-30T13:06:31.961Z,2.10
2019-05-30T13:09:07.353Z,1.90
2019-05-30T13:11:41.203Z,2.60
2019-05-30T13:14:13.562Z,2.97
2019-05-30T13:16:47.419Z,2.50
2019-05-30T13:19:21.905Z,2.60
2019-05-30T13:21:55.383Z,3.50
2019-05-30T13:24:32.055Z,3.13
2019-05-30T13:27:08.031Z,5.40
2019-05-30T13:29:37.830Z,1.67
2019-05-30T13:32:10.437Z,2.00
2019-05-30T13:34:43.249Z,1.97
2019-05-30T13:37:16.378Z,2.20
2019-05-30T13:39:52.491Z,2.87
2019-05-30T13:42:24.498Z,1.50
2019-05-30T13:44:57.773Z,2.73
2019-05-30T13:47:35.634Z,2.50
2019-05-30T13:50:13.489Z,1.67
2019-05-30T13:52:44.658Z,2.70
2019-05-30T13:55:18.888Z,2.17
2019-05-30T13:57:50.921Z,1.77
2019-05-30T14:00:27.117Z,2.70
2019-05-30T14:03:04.089Z,1.47
2019-05-30T14:05:36.116Z,2.87
2019-05-30T14:08:20.564Z,2.97
2019-05-30T14:10:57.684Z,2.67
2019-05-30T14:13:35.269Z,3.10
2019-05-30T14:16:09.344Z,4.07
2019-05-30T14:18:52.400Z,2.87
2019-05-30T14:21:30.575Z,1.73
2019-05-30T14:24:05.318Z,2.70
2019-05-30T14:26:38.796Z,2.27
2019-05-30T14:29:22.615Z,2.60
2019-05-30T14:31:54.999Z,2.20
2019-05-30T14:34:28.113Z,2.27
2019-05-30T14:37:02.277Z,2.20
2019-05-30T14:39:34.107Z,2.90
2019-05-30T14:42:09.084Z,3.43
2019-05-30T14:44:54.027Z,3.10
2019-05-30T14:47:30.106Z,5.93
2019-05-30T14:50:04.587Z,2.80
2019-05-30T14:52:37.024Z,2.17
2019-05-30T14:55:14.174Z,3.23
2019-05-30T14:57:50.434Z,3.33
2019-05-30T15:00:24.351Z,2.20
2019-05-30T15:03:01.601Z,7.50
2019-05-30T15:05:38.408Z,4.43
2019-05-30T15:08:16.783Z,5.13
2019-05-30T15:10:51.811Z,2.77
2019-05-30T15:13:28.180Z,2.80
2019-05-30T15:16:10.868Z,1.70
2019-05-30T15:18:43.702Z,3.67
2019-05-30T15:21:16.924Z,1.87
2019-05-30T15:23:53.194Z,3.60
2019-05-30T15:26:28.306Z,5.70
2019-05-30T15:29:05.982Z,2.10
2019-05-30T15:31:38.846Z,2.33
2019-05-30T15:34:12.614Z,3.90
2019-05-30T15:36:47.141Z,3.20
2019-05-30T15:39:32.239Z,2.33
2019-05-30T15:41:59.732Z,3.57
2019-05-30T15:44:31.629Z,3.43
2019-05-30T15:47:03.259Z,2.97
2019-05-30T15:49:36.500Z,1.90
2019-05-30T15:52:09.025Z,3.97
2019-05-30T15:54:43.466Z,1.90
2019-05-30T15:57:17.478Z,2.70
2019-05-30T15:59:49.469Z,3.20
2019-05-30T16:02:25.787Z,3.10
2019-05-30T16:04:59.476Z,4.30
2019-05-30T16:07:32.309Z,4.83
2019-05-30T16:10:05.534Z,2.57
2019-05-30T16:12:41.308Z,3.70
2019-05-30T16:15:19.665Z,2.70
2019-05-30T16:17:58.946Z,2.87
2019-05-30T16:20:30.677Z,3.43
2019-05-30T16:23:08.765Z,3.93
2019-05-30T16:25:45.592Z,2.50
2019-05-30T16:28:19.727Z,4.27
2019-05-30T16:30:54.717Z,4.57
2019-05-30T16:33:30.627Z,4.00
2019-05-30T16:36:04.405Z,3.57
2019-05-30T16:38:36.901Z,5.40
2019-05-30T16:41:14.129Z,3.40
2019-05-30T16:43:49.191Z,4.27
2019-05-30T16:46:22.687Z,3.57
2019-05-30T16:48:56.858Z,3.87
2019-05-30T16:51:29.160Z,2.80
2019-05-30T16:54:04.710Z,3.13
2019-05-30T16:56:37.672Z,4.77
2019-05-30T16:59:11.198Z,2.93
2019-05-30T17:01:57.662Z,3.73
2019-05-30T17:04:33.444Z,3.40
2019-05-30T17:07:09.401Z,2.67
2019-05-30T17:09:46.529Z,3.80
2019-05-30T17:12:21.959Z,4.63
2019-05-30T17:14:58.757Z,2.63
2019-05-30T17:17:35.774Z,4.53
2019-05-30T17:20:09.988Z,3.87
2019-05-30T17:22:46.194Z,3.47
2019-05-30T17:25:20.940Z,5.00
2019-05-30T17:27:57.017Z,6.10
2019-05-30T17:30:30.556Z,2.77
2019-05-30T17:33:08.013Z,4.27
2019-05-30T17:35:46.137Z,4.50
2019-05-30T17:38:20.305Z,3.60
2019-05-30T17:41:02.041Z,4.20
2019-05-30T17:43:34.477Z,3.07
2019-05-30T17:46:08.928Z,4.03
2019-05-30T17:48:44.862Z,3.37
2019-05-30T17:51:19.747Z,2.70
2019-05-30T17:53:56.076Z,3.10
2019-05-30T17:56:28.190Z,2.80
2019-05-30T17:59:03.286Z,3.77
2019-05-30T18:01:41.786Z,4.77
2019-05-30T18:04:13.471Z,3.53
2019-05-30T18:06:52.098Z,3.00
2019-05-30T18:09:25.422Z,3.53
2019-05-30T18:11:59.416Z,3.67
2019-05-30T18:14:34.370Z,5.07
2019-05-30T18:17:16.338Z,3.37
2019-05-30T18:19:59.326Z,4.00
2019-05-30T18:22:32.444Z,5.33
2019-05-30T18:25:16.638Z,4.17
2019-05-30T18:27:56.932Z,4.10
2019-05-30T18:30:46.198Z,3.00
2019-05-30T18:33:18.363Z,3.50
2019-05-30T18:35:51.998Z,4.50
2019-05-30T18:38:22.724Z,4.67
2019-05-30T18:41:10.267Z,5.10
2019-05-30T18:43:32.906Z,3.13
2019-05-30T18:46:08.504Z,4.77
2019-05-30T18:48:50.557Z,4.53
2019-05-30T18:51:28.114Z,3.17
2019-05-30T18:54:07.600Z,4.13
2019-05-30T18:56:43.378Z,4.80
2019-05-30T18:59:22.102Z,5.93
2019-05-30T19:01:52.754Z,5.47
2019-05-30T19:04:29.619Z,4.33
2019-05-30T19:07:02.940Z,5.03
2019-05-30T19:09:38.721Z,4.40
2019-05-30T19:12:15.734Z,4.43
2019-05-30T19:14:46.359Z,5.50
2019-05-30T19:17:15.548Z,5.23
2019-05-30T19:19:44.568Z,4.37
2019-05-30T19:22:13.054Z,4.13
2019-05-30T19:24:41.570Z,5.50
2019-05-30T19:27:10.946Z,5.13
2019-05-30T19:29:39.398Z,5.93
2019-05-30T19:32:08.177Z,5.63
2019-05-30T19:34:41.431Z,6.10
2019-05-30T19:37:14.841Z,5.60
2019-05-30T19:39:52.181Z,5.43
2019-05-30T19:42:27.273Z,4.73
2019-05-30T19:45:01.902Z,5.50
2019-05-30T19:47:34.543Z,6.50
2019-05-30T19:50:09.518Z,5.70
2019-05-30T19:52:46.203Z,6.17
2019-05-30T19:55:21.571Z,7.33
2019-05-30T19:57:56.695Z,4.67
2019-05-30T20:00:31.973Z,4.93
2019-05-30T20:03:07.676Z,5.67
2019-05-30T20:05:44.465Z,4.93
2019-05-30T20:08:21.842Z,4.33
2019-05-30T20:11:02.257Z,6.67
2019-05-30T20:13:39.650Z,4.50
2019-05-30T20:16:13.785Z,5.00
2019-05-30T20:18:50.471Z,5.23
2019-05-30T20:21:26.026Z,2.57
2019-05-30T20:24:00.019Z,4.10
2019-05-30T20:26:32.358Z,4.97
2019-05-30T20:29:01.135Z,3.50
2019-05-30T20:31:30.719Z,2.40
2019-05-30T20:33:59.720Z,3.27
2019-05-30T20:36:27.938Z,6.07
2019-05-30T20:38:56.475Z,2.67
2019-05-30T20:41:25.160Z,2.57
2019-05-30T20:43:53.877Z,3.93
2019-05-30T20:46:23.683Z,4.53
2019-05-30T20:48:52.642Z,2.87
2019-05-30T20:51:21.762Z,3.07
2019-05-30T20:53:50.461Z,2.37
2019-05-30T20:56:19.135Z,3.17
2019-05-30T20:58:47.829Z,3.53
2019-05-30T21:01:16.760Z,3.73
2019-05-30T21:03:46.534Z,3.53
2019-05-30T21:06:19.417Z,3.20
2019-05-30T21:08:50.909Z,4.03
2019-05-30T21:11:20.056Z,3.10
2019-05-30T21:13:52.462Z,3.60
2019-05-30T21:16:23.499Z,3.07
2019-05-30T21:18:55.814Z,3.20
2019-05-30T21:21:26.585Z,3.20
2019-05-30T21:23:56.936Z,2.63
2019-05-30T21:26:25.892Z,3.57
2019-05-30T21:28:55.011Z,3.30
2019-05-30T21:31:24.805Z,4.27
2019-05-30T21:33:53.741Z,3.93
2019-05-30T21:36:26.349Z,3.90
2019-05-30T21:38:53.398Z,3.80
2019-05-30T21:41:21.891Z,4.37
2019-05-30T21:43:50.608Z,4.77
2019-05-30T21:46:19.056Z,4.63
2019-05-30T21:48:49.029Z,5.20
2019-05-30T21:51:20.176Z,6.17
2019-05-30T21:53:49.713Z,4.00
2019-05-30T21:56:18.296Z,6.47
2019-05-30T21:58:46.820Z,6.10
2019-05-30T22:01:34.521Z,6.73
2019-05-30T22:04:04.071Z,6.00
2019-05-30T22:06:32.907Z,4.47
2019-05-30T22:09:03.393Z,5.07
2019-05-30T22:11:33.306Z,6.20
2019-05-30T22:14:02.052Z,4.60
2019-05-30T22:16:30.717Z,4.13
2019-05-30T22:18:59.891Z,5.47
2019-05-30T22:21:30.688Z,4.57
2019-05-30T22:23:59.477Z,4.37
2019-05-30T22:26:28.922Z,4.77
2019-05-30T22:28:58.296Z,3.97
2019-05-30T22:31:27.159Z,4.83
2019-05-30T22:33:55.807Z,4.07
2019-05-30T22:36:24.299Z,5.40
2019-05-30T22:38:53.183Z,3.83
2019-05-30T22:41:22.382Z,4.60
2019-05-30T22:43:50.956Z,6.00
2019-05-30T22:46:19.955Z,3.27
2019-05-30T22:48:48.436Z,3.73
2019-05-30T22:51:17.009Z,4.13
2019-05-30T22:53:47.041Z,4.20
2019-05-30T22:56:15.904Z,4.97
2019-05-30T22:58:45.561Z,5.10
2019-05-30T23:01:14.141Z,4.40
2019-05-30T23:03:42.988Z,4.77
2019-05-30T23:06:11.599Z,4.40
2019-05-30T23:08:40.296Z,5.47
2019-05-30T23:11:08.967Z,4.90
2019-05-30T23:13:40.757Z,4.23
2019-05-30T23:16:09.490Z,4.47
2019-05-30T23:18:38.379Z,3.27
2019-05-30T23:21:06.989Z,5.07
2019-05-30T23:23:35.730Z,6.00
2019-05-30T23:26:04.336Z,4.77
2019-05-30T23:28:33.652Z,5.13
2019-05-30T23:31:02.056Z,5.90
2019-05-30T23:33:30.807Z,4.77
2019-05-30T23:35:59.291Z,5.73
2019-05-30T23:38:27.715Z,4.13
2019-05-30T23:40:57.066Z,5.80
2019-05-30T23:43:25.999Z,4.77
2019-05-30T23:45:55.776Z,5.23
2019-05-30T23:48:24.252Z,5.10
2019-05-30T23:50:53.852Z,4.70
2019-05-30T23:53:22.563Z,4.90
2019-05-30T23:55:51.921Z,4.60
2019-05-30T23:58:20.931Z,5.73
